Terminal Aerodrome Forecast
Issued by NWS

Home | Current Version | Previous Version | Text Only | Print | Product List | Glossary On
Versions: 1 2 3 4 5 6 7 8 9 10 11 12 13 14 15 16 17 18
000
FTUS44 KTSA 180300 AAB
TAFMLC
TAF AMD
KMLC 180304Z 1803/1824 11006KT 6SM -DZ BR SCT008 OVC045
     FM180500 11004KT 5SM -DZ BR OVC012
     FM180900 14003KT 2SM BR OVC004
     FM181400 14003KT 5SM BR OVC006
     FM182200 07005KT 5SM BR OVC012=

USA.gov is the U.S. government's official web portal to all federal, state and local government web resources and services.